sensor_id;sensor_type;location;lat;lon;timestamp;pressure;altitude;pressure_sealevel;temperature;humidity
56689;BME280;42565;53.342;-1.534;2023-05-07T00:02:25;98727.44;;;15.50;75.66
56689;BME280;42565;53.342;-1.534;2023-05-07T00:04:52;98726.47;;;15.90;76.76
56689;BME280;42565;53.342;-1.534;2023-05-07T00:07:20;98725.60;;;16.22;76.14
56689;BME280;42565;53.342;-1.534;2023-05-07T00:09:47;98724.63;;;16.21;75.07
56689;BME280;42565;53.342;-1.534;2023-05-07T00:12:14;98723.80;;;16.32;73.29
56689;BME280;42565;53.342;-1.534;2023-05-07T00:14:41;98726.03;;;16.52;72.68
56689;BME280;42565;53.342;-1.534;2023-05-07T00:17:08;98729.45;;;16.44;73.18
56689;BME280;42565;53.342;-1.534;2023-05-07T00:19:35;98727.87;;;14.59;76.53
56689;BME280;42565;53.342;-1.534;2023-05-07T00:22:03;98731.88;;;14.53;74.95
56689;BME280;42565;53.342;-1.534;2023-05-07T00:24:29;98730.26;;;15.74;72.28
56689;BME280;42565;53.342;-1.534;2023-05-07T00:26:56;98723.96;;;16.43;69.93
56689;BME280;42565;53.342;-1.534;2023-05-07T00:29:28;98726.09;;;17.01;69.22
56689;BME280;42565;53.342;-1.534;2023-05-07T00:31:54;98728.06;;;16.51;69.86
56689;BME280;42565;53.342;-1.534;2023-05-07T00:34:22;98727.05;;;16.78;69.15
56689;BME280;42565;53.342;-1.534;2023-05-07T00:36:58;98726.38;;;17.00;68.81
56689;BME280;42565;53.342;-1.534;2023-05-07T00:39:25;98727.90;;;17.43;68.31
56689;BME280;42565;53.342;-1.534;2023-05-07T00:41:53;98731.43;;;16.25;69.23
56689;BME280;42565;53.342;-1.534;2023-05-07T00:44:20;98734.23;;;16.82;69.20
56689;BME280;42565;53.342;-1.534;2023-05-07T00:46:47;98731.74;;;16.90;70.08
56689;BME280;42565;53.342;-1.534;2023-05-07T00:49:14;98736.08;;;16.70;71.71
56689;BME280;42565;53.342;-1.534;2023-05-07T00:51:42;98735.11;;;16.34;72.41
56689;BME280;42565;53.342;-1.534;2023-05-07T00:54:09;98737.37;;;16.24;73.16
56689;BME280;42565;53.342;-1.534;2023-05-07T00:56:37;98737.18;;;16.03;73.76
56689;BME280;42565;53.342;-1.534;2023-05-07T00:59:04;98734.69;;;16.04;74.29
56689;BME280;42565;53.342;-1.534;2023-05-07T01:01:32;98733.44;;;15.97;74.32
56689;BME280;42565;53.342;-1.534;2023-05-07T01:03:59;98731.84;;;15.79;75.04
56689;BME280;42565;53.342;-1.534;2023-05-07T01:06:27;98729.46;;;15.90;75.06
56689;BME280;42565;53.342;-1.534;2023-05-07T01:08:55;98732.14;;;15.64;75.16
56689;BME280;42565;53.342;-1.534;2023-05-07T01:11:23;98733.64;;;16.04;74.08
56689;BME280;42565;53.342;-1.534;2023-05-07T01:13:51;98729.96;;;16.12;74.01
56689;BME280;42565;53.342;-1.534;2023-05-07T01:16:19;98727.01;;;16.08;73.82
56689;BME280;42565;53.342;-1.534;2023-05-07T01:18:46;98727.06;;;16.35;73.21
56689;BME280;42565;53.342;-1.534;2023-05-07T01:21:15;98727.03;;;15.85;74.57
56689;BME280;42565;53.342;-1.534;2023-05-07T01:23:44;98728.12;;;16.11;73.96
56689;BME280;42565;53.342;-1.534;2023-05-07T01:26:12;98731.39;;;16.00;74.94
56689;BME280;42565;53.342;-1.534;2023-05-07T01:28:39;98732.41;;;15.94;74.60
56689;BME280;42565;53.342;-1.534;2023-05-07T01:31:06;98730.48;;;15.94;74.66
56689;BME280;42565;53.342;-1.534;2023-05-07T01:33:36;98730.75;;;16.57;74.33
56689;BME280;42565;53.342;-1.534;2023-05-07T01:36:05;98729.19;;;16.02;74.51
56689;BME280;42565;53.342;-1.534;2023-05-07T01:38:34;98730.15;;;15.98;74.41
56689;BME280;42565;53.342;-1.534;2023-05-07T01:41:02;98731.18;;;16.25;74.14
56689;BME280;42565;53.342;-1.534;2023-05-07T01:43:29;98732.32;;;15.40;74.70
56689;BME280;42565;53.342;-1.534;2023-05-07T01:45:57;98734.38;;;15.99;74.92
56689;BME280;42565;53.342;-1.534;2023-05-07T01:48:26;98734.37;;;15.65;76.02
56689;BME280;42565;53.342;-1.534;2023-05-07T01:50:53;98735.57;;;15.64;76.31
56689;BME280;42565;53.342;-1.534;2023-05-07T01:53:22;98738.27;;;15.69;76.32
56689;BME280;42565;53.342;-1.534;2023-05-07T01:55:49;98740.45;;;16.03;76.02
56689;BME280;42565;53.342;-1.534;2023-05-07T01:58:16;98740.85;;;15.79;75.43
56689;BME280;42565;53.342;-1.534;2023-05-07T02:00:43;98742.89;;;16.02;74.64
56689;BME280;42565;53.342;-1.534;2023-05-07T02:03:10;98743.60;;;16.27;74.37
56689;BME280;42565;53.342;-1.534;2023-05-07T02:05:37;98746.59;;;15.96;74.05
56689;BME280;42565;53.342;-1.534;2023-05-07T02:08:04;98750.33;;;15.73;75.16
56689;BME280;42565;53.342;-1.534;2023-05-07T02:10:31;98750.34;;;16.00;75.74
56689;BME280;42565;53.342;-1.534;2023-05-07T02:12:57;98752.54;;;15.83;75.94
56689;BME280;42565;53.342;-1.534;2023-05-07T02:15:25;98753.68;;;15.57;75.66
56689;BME280;42565;53.342;-1.534;2023-05-07T02:18:01;98757.41;;;16.01;75.70
56689;BME280;42565;53.342;-1.534;2023-05-07T02:20:29;98760.74;;;15.23;77.03
56689;BME280;42565;53.342;-1.534;2023-05-07T02:22:56;98760.88;;;15.54;76.17
56689;BME280;42565;53.342;-1.534;2023-05-07T02:25:24;98763.26;;;16.15;75.68
56689;BME280;42565;53.342;-1.534;2023-05-07T02:27:50;98767.25;;;15.72;75.51
56689;BME280;42565;53.342;-1.534;2023-05-07T02:30:18;98770.64;;;15.95;75.26
56689;BME280;42565;53.342;-1.534;2023-05-07T02:32:44;98771.97;;;16.00;74.61
56689;BME280;42565;53.342;-1.534;2023-05-07T02:35:12;98774.28;;;16.20;74.33
56689;BME280;42565;53.342;-1.534;2023-05-07T02:37:38;98773.26;;;16.15;73.70
56689;BME280;42565;53.342;-1.534;2023-05-07T02:40:07;98780.88;;;16.05;74.53
56689;BME280;42565;53.342;-1.534;2023-05-07T02:42:34;98784.18;;;15.59;74.83
56689;BME280;42565;53.342;-1.534;2023-05-07T02:45:01;98785.49;;;16.00;74.88
56689;BME280;42565;53.342;-1.534;2023-05-07T02:47:28;98787.77;;;15.68;75.13
56689;BME280;42565;53.342;-1.534;2023-05-07T02:49:55;98786.70;;;15.67;75.71
56689;BME280;42565;53.342;-1.534;2023-05-07T02:52:22;98790.33;;;15.52;76.25
56689;BME280;42565;53.342;-1.534;2023-05-07T02:54:49;98795.87;;;14.84;78.54
56689;BME280;42565;53.342;-1.534;2023-05-07T02:57:17;98797.63;;;14.79;79.95
56689;BME280;42565;53.342;-1.534;2023-05-07T02:59:44;98795.43;;;14.90;78.84
56689;BME280;42565;53.342;-1.534;2023-05-07T03:02:11;98795.38;;;15.50;77.73
56689;BME280;42565;53.342;-1.534;2023-05-07T03:04:40;98795.89;;;15.15;77.23
56689;BME280;42565;53.342;-1.534;2023-05-07T03:07:07;98796.37;;;15.67;76.28
56689;BME280;42565;53.342;-1.534;2023-05-07T03:09:34;98795.98;;;15.62;75.45
56689;BME280;42565;53.342;-1.534;2023-05-07T03:12:01;98802.97;;;15.66;76.54
56689;BME280;42565;53.342;-1.534;2023-05-07T03:14:28;98801.29;;;15.26;76.37
56689;BME280;42565;53.342;-1.534;2023-05-07T03:16:55;98802.36;;;15.56;76.13
56689;BME280;42565;53.342;-1.534;2023-05-07T03:19:22;98802.75;;;15.88;76.12
56689;BME280;42565;53.342;-1.534;2023-05-07T03:21:49;98808.26;;;15.66;75.96
56689;BME280;42565;53.342;-1.534;2023-05-07T03:24:17;98807.68;;;15.77;75.59
56689;BME280;42565;53.342;-1.534;2023-05-07T03:26:43;98808.97;;;15.70;74.72
56689;BME280;42565;53.342;-1.534;2023-05-07T03:29:10;98811.48;;;16.40;73.31
56689;BME280;42565;53.342;-1.534;2023-05-07T03:31:37;98811.63;;;16.12;74.17
56689;BME280;42565;53.342;-1.534;2023-05-07T03:34:05;98810.35;;;15.93;74.38
56689;BME280;42565;53.342;-1.534;2023-05-07T03:36:32;98808.81;;;15.84;73.75
56689;BME280;42565;53.342;-1.534;2023-05-07T03:38:59;98807.95;;;16.21;73.24
56689;BME280;42565;53.342;-1.534;2023-05-07T03:41:26;98806.67;;;16.33;72.98
56689;BME280;42565;53.342;-1.534;2023-05-07T03:43:53;98806.25;;;16.26;73.08
56689;BME280;42565;53.342;-1.534;2023-05-07T03:46:20;98805.95;;;16.31;73.06
56689;BME280;42565;53.342;-1.534;2023-05-07T03:48:48;98805.78;;;15.71;74.33
56689;BME280;42565;53.342;-1.534;2023-05-07T03:51:15;98806.73;;;15.88;74.67
56689;BME280;42565;53.342;-1.534;2023-05-07T03:53:43;98811.32;;;15.84;73.40
56689;BME280;42565;53.342;-1.534;2023-05-07T03:56:09;98810.93;;;15.31;75.28
56689;BME280;42565;53.342;-1.534;2023-05-07T03:58:37;98809.59;;;15.44;74.74
56689;BME280;42565;53.342;-1.534;2023-05-07T04:01:03;98812.37;;;15.77;75.14
56689;BME280;42565;53.342;-1.534;2023-05-07T04:03:31;98808.40;;;15.49;74.93
56689;BME280;42565;53.342;-1.534;2023-05-07T04:05:58;98809.73;;;15.15;75.46
56689;BME280;42565;53.342;-1.534;2023-05-07T04:08:25;98804.24;;;15.81;73.80
56689;BME280;42565;53.342;-1.534;2023-05-07T04:10:55;98804.46;;;15.74;73.36
56689;BME280;42565;53.342;-1.534;2023-05-07T04:13:22;98803.69;;;15.73;73.58
56689;BME280;42565;53.342;-1.534;2023-05-07T04:15:50;98811.15;;;15.31;73.99
56689;BME280;42565;53.342;-1.534;2023-05-07T04:18:17;98814.47;;;15.42;74.74
56689;BME280;42565;53.342;-1.534;2023-05-07T04:20:44;98809.40;;;15.70;73.24
56689;BME280;42565;53.342;-1.534;2023-05-07T04:23:11;98808.36;;;15.62;73.57
56689;BME280;42565;53.342;-1.534;2023-05-07T04:25:38;98812.81;;;15.28;74.62
56689;BME280;42565;53.342;-1.534;2023-05-07T04:28:05;98812.27;;;14.79;76.14
56689;BME280;42565;53.342;-1.534;2023-05-07T04:30:32;98815.67;;;14.91;74.98
56689;BME280;42565;53.342;-1.534;2023-05-07T04:32:59;98811.84;;;15.08;74.85
56689;BME280;42565;53.342;-1.534;2023-05-07T04:35:26;98814.19;;;14.96;75.21
56689;BME280;42565;53.342;-1.534;2023-05-07T04:37:53;98811.28;;;14.65;76.03
56689;BME280;42565;53.342;-1.534;2023-05-07T04:40:20;98812.04;;;15.14;74.76
56689;BME280;42565;53.342;-1.534;2023-05-07T04:42:48;98814.27;;;15.21;75.37
56689;BME280;42565;53.342;-1.534;2023-05-07T04:45:14;98813.96;;;15.05;75.83
56689;BME280;42565;53.342;-1.534;2023-05-07T04:47:42;98814.05;;;14.73;75.91
56689;BME280;42565;53.342;-1.534;2023-05-07T04:50:10;98814.96;;;14.98;75.78
56689;BME280;42565;53.342;-1.534;2023-05-07T04:52:37;98817.04;;;14.63;75.68
56689;BME280;42565;53.342;-1.534;2023-05-07T04:55:05;98816.71;;;15.01;75.50
56689;BME280;42565;53.342;-1.534;2023-05-07T04:57:33;98815.32;;;14.86;75.21
56689;BME280;42565;53.342;-1.534;2023-05-07T05:00:00;98818.53;;;15.07;74.88
56689;BME280;42565;53.342;-1.534;2023-05-07T05:02:26;98819.43;;;15.01;75.51
56689;BME280;42565;53.342;-1.534;2023-05-07T05:04:53;98819.77;;;14.97;75.42
56689;BME280;42565;53.342;-1.534;2023-05-07T05:07:20;98821.48;;;14.84;75.94
56689;BME280;42565;53.342;-1.534;2023-05-07T05:09:46;98820.99;;;14.79;75.54
56689;BME280;42565;53.342;-1.534;2023-05-07T05:12:13;98822.59;;;15.12;75.09
56689;BME280;42565;53.342;-1.534;2023-05-07T05:14:40;98821.06;;;14.78;74.79
56689;BME280;42565;53.342;-1.534;2023-05-07T05:17:07;98821.98;;;15.01;74.55
56689;BME280;42565;53.342;-1.534;2023-05-07T05:19:35;98824.14;;;14.99;74.67
56689;BME280;42565;53.342;-1.534;2023-05-07T05:22:01;98827.64;;;14.76;75.64
56689;BME280;42565;53.342;-1.534;2023-05-07T05:24:28;98829.05;;;14.71;75.30
56689;BME280;42565;53.342;-1.534;2023-05-07T05:26:56;98831.52;;;14.94;74.68
56689;BME280;42565;53.342;-1.534;2023-05-07T05:29:23;98836.42;;;15.83;73.44
56689;BME280;42565;53.342;-1.534;2023-05-07T05:31:51;98839.35;;;15.43;73.54
56689;BME280;42565;53.342;-1.534;2023-05-07T05:34:17;98843.89;;;15.57;73.27
56689;BME280;42565;53.342;-1.534;2023-05-07T05:36:45;98848.27;;;15.87;71.72
56689;BME280;42565;53.342;-1.534;2023-05-07T05:39:12;98849.63;;;15.81;72.31
56689;BME280;42565;53.342;-1.534;2023-05-07T05:41:39;98851.82;;;15.60;72.02
56689;BME280;42565;53.342;-1.534;2023-05-07T05:44:06;98852.44;;;15.76;72.32
56689;BME280;42565;53.342;-1.534;2023-05-07T05:46:33;98858.57;;;15.43;72.20
56689;BME280;42565;53.342;-1.534;2023-05-07T05:49:01;98860.28;;;15.24;73.88
56689;BME280;42565;53.342;-1.534;2023-05-07T05:51:28;98862.70;;;14.83;74.01
56689;BME280;42565;53.342;-1.534;2023-05-07T05:53:55;98862.84;;;15.13;75.72
56689;BME280;42565;53.342;-1.534;2023-05-07T05:56:22;98867.72;;;15.66;74.04
56689;BME280;42565;53.342;-1.534;2023-05-07T05:58:49;98872.47;;;15.42;74.84
56689;BME280;42565;53.342;-1.534;2023-05-07T06:01:17;98873.94;;;15.37;74.06
56689;BME280;42565;53.342;-1.534;2023-05-07T06:03:44;98873.25;;;15.84;72.38
56689;BME280;42565;53.342;-1.534;2023-05-07T06:06:11;98876.32;;;15.84;72.72
56689;BME280;42565;53.342;-1.534;2023-05-07T06:08:38;98878.74;;;15.66;73.84
56689;BME280;42565;53.342;-1.534;2023-05-07T06:11:05;98882.49;;;15.80;72.68
56689;BME280;42565;53.342;-1.534;2023-05-07T06:13:32;98886.45;;;15.47;73.55
56689;BME280;42565;53.342;-1.534;2023-05-07T06:15:59;98889.09;;;15.35;73.98
56689;BME280;42565;53.342;-1.534;2023-05-07T06:18:26;98885.54;;;15.15;74.61
56689;BME280;42565;53.342;-1.534;2023-05-07T06:20:53;98882.82;;;15.41;73.71
56689;BME280;42565;53.342;-1.534;2023-05-07T06:23:20;98883.16;;;15.53;72.07
56689;BME280;42565;53.342;-1.534;2023-05-07T06:25:49;98884.54;;;15.46;73.42
56689;BME280;42565;53.342;-1.534;2023-05-07T06:28:16;98886.33;;;15.81;72.42
56689;BME280;42565;53.342;-1.534;2023-05-07T06:30:43;98884.87;;;15.88;71.71
56689;BME280;42565;53.342;-1.534;2023-05-07T06:33:11;98882.67;;;15.87;72.52
56689;BME280;42565;53.342;-1.534;2023-05-07T06:35:37;98883.70;;;15.82;71.77
56689;BME280;42565;53.342;-1.534;2023-05-07T06:38:05;98888.12;;;15.42;73.38
56689;BME280;42565;53.342;-1.534;2023-05-07T06:40:32;98893.93;;;15.06;73.72
56689;BME280;42565;53.342;-1.534;2023-05-07T06:42:59;98895.95;;;15.62;72.93
56689;BME280;42565;53.342;-1.534;2023-05-07T06:45:26;98897.60;;;15.10;74.52
56689;BME280;42565;53.342;-1.534;2023-05-07T06:47:53;98900.64;;;15.45;73.52
56689;BME280;42565;53.342;-1.534;2023-05-07T06:50:19;98900.73;;;15.31;74.26
56689;BME280;42565;53.342;-1.534;2023-05-07T06:52:47;98899.37;;;15.08;74.05
56689;BME280;42565;53.342;-1.534;2023-05-07T06:55:14;98905.04;;;15.39;74.54
56689;BME280;42565;53.342;-1.534;2023-05-07T06:57:41;98909.49;;;15.14;74.89
56689;BME280;42565;53.342;-1.534;2023-05-07T07:00:09;98914.04;;;14.89;76.24
56689;BME280;42565;53.342;-1.534;2023-05-07T07:02:36;98919.11;;;15.08;76.35
56689;BME280;42565;53.342;-1.534;2023-05-07T07:05:04;98924.15;;;15.01;74.89
56689;BME280;42565;53.342;-1.534;2023-05-07T07:07:31;98922.27;;;14.56;75.16
56689;BME280;42565;53.342;-1.534;2023-05-07T07:09:58;98927.75;;;15.36;74.46
56689;BME280;42565;53.342;-1.534;2023-05-07T07:12:25;98929.39;;;15.43;73.99
56689;BME280;42565;53.342;-1.534;2023-05-07T07:14:52;98928.99;;;15.97;72.86
56689;BME280;42565;53.342;-1.534;2023-05-07T07:17:19;98926.90;;;15.31;73.97
56689;BME280;42565;53.342;-1.534;2023-05-07T07:19:47;98930.74;;;15.75;73.40
56689;BME280;42565;53.342;-1.534;2023-05-07T07:22:14;98936.22;;;16.16;71.92
56689;BME280;42565;53.342;-1.534;2023-05-07T07:24:42;98936.06;;;16.76;71.39
56689;BME280;42565;53.342;-1.534;2023-05-07T07:27:08;98936.04;;;16.80;72.41
56689;BME280;42565;53.342;-1.534;2023-05-07T07:29:36;98936.82;;;16.65;71.70
56689;BME280;42565;53.342;-1.534;2023-05-07T07:32:03;98941.02;;;16.82;70.73
56689;BME280;42565;53.342;-1.534;2023-05-07T07:34:31;98943.76;;;17.41;69.00
56689;BME280;42565;53.342;-1.534;2023-05-07T07:36:58;98945.75;;;16.72;69.14
56689;BME280;42565;53.342;-1.534;2023-05-07T07:39:25;98945.15;;;16.99;68.22
56689;BME280;42565;53.342;-1.534;2023-05-07T07:41:52;98947.90;;;16.57;69.16
56689;BME280;42565;53.342;-1.534;2023-05-07T07:44:19;98949.85;;;16.94;69.40
56689;BME280;42565;53.342;-1.534;2023-05-07T07:46:46;98952.38;;;16.66;70.23
56689;BME280;42565;53.342;-1.534;2023-05-07T07:49:14;98957.03;;;17.09;69.22
56689;BME280;42565;53.342;-1.534;2023-05-07T07:51:41;98960.20;;;16.81;68.28
56689;BME280;42565;53.342;-1.534;2023-05-07T07:54:09;98961.45;;;17.05;68.86
56689;BME280;42565;53.342;-1.534;2023-05-07T07:56:36;98960.45;;;17.59;67.26
56689;BME280;42565;53.342;-1.534;2023-05-07T07:59:03;98955.30;;;17.59;66.46
56689;BME280;42565;53.342;-1.534;2023-05-07T08:01:31;98957.00;;;18.01;65.16
56689;BME280;42565;53.342;-1.534;2023-05-07T08:03:58;98958.21;;;18.47;65.47
56689;BME280;42565;53.342;-1.534;2023-05-07T08:06:25;98959.37;;;18.24;65.76
56689;BME280;42565;53.342;-1.534;2023-05-07T08:08:53;98958.48;;;17.47;64.06
56689;BME280;42565;53.342;-1.534;2023-05-07T08:11:20;98959.56;;;17.92;64.86
56689;BME280;42565;53.342;-1.534;2023-05-07T08:13:47;98962.55;;;18.19;62.81
56689;BME280;42565;53.342;-1.534;2023-05-07T08:16:15;98958.54;;;18.38;61.49
56689;BME280;42565;53.342;-1.534;2023-05-07T08:18:42;98960.90;;;17.93;61.29
56689;BME280;42565;53.342;-1.534;2023-05-07T08:21:10;98961.60;;;18.00;61.12
56689;BME280;42565;53.342;-1.534;2023-05-07T08:23:37;98965.70;;;18.13;61.17
56689;BME280;42565;53.342;-1.534;2023-05-07T08:26:05;98967.95;;;18.16;61.36
56689;BME280;42565;53.342;-1.534;2023-05-07T08:28:32;98975.08;;;18.00;61.57
56689;BME280;42565;53.342;-1.534;2023-05-07T08:30:59;98975.10;;;17.93;62.98
56689;BME280;42565;53.342;-1.534;2023-05-07T08:33:26;98978.40;;;18.78;60.40
56689;BME280;42565;53.342;-1.534;2023-05-07T08:35:53;98985.38;;;18.44;60.60
56689;BME280;42565;53.342;-1.534;2023-05-07T08:38:21;98982.36;;;18.79;62.06
56689;BME280;42565;53.342;-1.534;2023-05-07T08:40:48;98978.87;;;18.88;59.67
56689;BME280;42565;53.342;-1.534;2023-05-07T08:43:17;98975.58;;;19.13;57.46
56689;BME280;42565;53.342;-1.534;2023-05-07T08:45:45;98977.26;;;19.03;56.68
56689;BME280;42565;53.342;-1.534;2023-05-07T08:48:17;98980.85;;;18.73;57.09
56689;BME280;42565;53.342;-1.534;2023-05-07T08:50:44;98982.69;;;19.16;58.38
56689;BME280;42565;53.342;-1.534;2023-05-07T08:53:12;98985.39;;;18.71;59.79
56689;BME280;42565;53.342;-1.534;2023-05-07T08:55:39;98986.54;;;18.81;59.11
56689;BME280;42565;53.342;-1.534;2023-05-07T08:58:06;98987.08;;;18.62;59.57
56689;BME280;42565;53.342;-1.534;2023-05-07T09:00:35;98985.40;;;18.86;59.99
56689;BME280;42565;53.342;-1.534;2023-05-07T09:03:03;98984.87;;;19.21;57.01
56689;BME280;42565;53.342;-1.534;2023-05-07T09:05:29;98985.13;;;19.12;60.44
56689;BME280;42565;53.342;-1.534;2023-05-07T09:07:59;98988.07;;;19.73;57.66
56689;BME280;42565;53.342;-1.534;2023-05-07T09:10:27;98994.29;;;19.65;58.77
56689;BME280;42565;53.342;-1.534;2023-05-07T09:12:54;98992.91;;;20.30;54.99
56689;BME280;42565;53.342;-1.534;2023-05-07T09:15:21;98996.01;;;20.13;53.85
56689;BME280;42565;53.342;-1.534;2023-05-07T09:17:48;98995.78;;;20.47;54.05
56689;BME280;42565;53.342;-1.534;2023-05-07T09:20:16;99000.84;;;20.37;55.00
56689;BME280;42565;53.342;-1.534;2023-05-07T09:22:43;99003.46;;;19.57;56.03
56689;BME280;42565;53.342;-1.534;2023-05-07T09:25:10;99010.48;;;18.72;58.02
56689;BME280;42565;53.342;-1.534;2023-05-07T09:27:38;99010.26;;;18.42;59.69
56689;BME280;42565;53.342;-1.534;2023-05-07T09:30:05;99012.44;;;18.64;58.16
56689;BME280;42565;53.342;-1.534;2023-05-07T09:32:35;99015.14;;;18.26;60.14
56689;BME280;42565;53.342;-1.534;2023-05-07T09:35:02;99017.40;;;18.70;59.19
56689;BME280;42565;53.342;-1.534;2023-05-07T09:37:31;99015.33;;;17.74;60.44
56689;BME280;42565;53.342;-1.534;2023-05-07T09:39:58;99023.75;;;18.22;59.66
56689;BME280;42565;53.342;-1.534;2023-05-07T09:42:26;99023.08;;;18.97;61.29
56689;BME280;42565;53.342;-1.534;2023-05-07T09:44:53;99022.04;;;19.42;58.93
56689;BME280;42565;53.342;-1.534;2023-05-07T09:47:23;99025.77;;;19.25;55.67
56689;BME280;42565;53.342;-1.534;2023-05-07T09:49:56;99027.15;;;19.75;54.95
56689;BME280;42565;53.342;-1.534;2023-05-07T09:52:23;99027.75;;;19.40;54.57
56689;BME280;42565;53.342;-1.534;2023-05-07T09:54:51;99038.26;;;19.44;55.78
56689;BME280;42565;53.342;-1.534;2023-05-07T09:57:19;99038.11;;;18.05;58.46
56689;BME280;42565;53.342;-1.534;2023-05-07T09:59:47;99037.98;;;17.89;59.79
56689;BME280;42565;53.342;-1.534;2023-05-07T10:02:18;99040.27;;;17.68;58.17
56689;BME280;42565;53.342;-1.534;2023-05-07T10:04:46;99045.37;;;18.39;57.79
56689;BME280;42565;53.342;-1.534;2023-05-07T10:07:14;99043.61;;;18.01;57.00
56689;BME280;42565;53.342;-1.534;2023-05-07T10:09:43;99043.83;;;18.58;57.01
56689;BME280;42565;53.342;-1.534;2023-05-07T10:12:11;99047.72;;;19.24;57.61
56689;BME280;42565;53.342;-1.534;2023-05-07T10:14:39;99046.55;;;19.52;53.96
56689;BME280;42565;53.342;-1.534;2023-05-07T10:17:08;99050.08;;;20.10;53.71
56689;BME280;42565;53.342;-1.534;2023-05-07T10:19:36;99053.63;;;20.05;54.27
56689;BME280;42565;53.342;-1.534;2023-05-07T10:22:05;99055.91;;;20.93;51.35
56689;BME280;42565;53.342;-1.534;2023-05-07T10:24:34;99053.46;;;20.21;51.78
56689;BME280;42565;53.342;-1.534;2023-05-07T10:27:05;99052.83;;;20.30;52.74
56689;BME280;42565;53.342;-1.534;2023-05-07T10:29:42;99044.43;;;20.93;51.37
56689;BME280;42565;53.342;-1.534;2023-05-07T10:32:27;99049.35;;;20.89;50.50
56689;BME280;42565;53.342;-1.534;2023-05-07T10:35:03;99051.36;;;20.55;50.21
56689;BME280;42565;53.342;-1.534;2023-05-07T10:37:31;99056.07;;;21.49;51.08
56689;BME280;42565;53.342;-1.534;2023-05-07T10:39:59;99053.89;;;21.42;49.97
56689;BME280;42565;53.342;-1.534;2023-05-07T10:42:27;99055.81;;;21.87;49.10
56689;BME280;42565;53.342;-1.534;2023-05-07T10:44:54;99057.52;;;21.88;48.64
56689;BME280;42565;53.342;-1.534;2023-05-07T10:47:22;99059.63;;;22.45;46.96
56689;BME280;42565;53.342;-1.534;2023-05-07T10:50:22;99059.65;;;21.75;46.40
56689;BME280;42565;53.342;-1.534;2023-05-07T10:53:21;99060.57;;;22.36;48.30
56689;BME280;42565;53.342;-1.534;2023-05-07T10:55:49;99065.49;;;23.03;45.45
56689;BME280;42565;53.342;-1.534;2023-05-07T10:58:24;99066.02;;;22.38;44.59
56689;BME280;42565;53.342;-1.534;2023-05-07T11:00:57;99067.50;;;22.61;43.92
56689;BME280;42565;53.342;-1.534;2023-05-07T11:03:25;99071.37;;;22.60;44.85
56689;BME280;42565;53.342;-1.534;2023-05-07T11:06:23;99071.32;;;22.20;44.52
56689;BME280;42565;53.342;-1.534;2023-05-07T11:08:54;99074.99;;;21.94;45.05
56689;BME280;42565;53.342;-1.534;2023-05-07T11:11:44;99078.28;;;21.83;42.65
56689;BME280;42565;53.342;-1.534;2023-05-07T11:14:11;99083.80;;;22.58;42.25
56689;BME280;42565;53.342;-1.534;2023-05-07T11:16:40;99083.36;;;21.84;43.59
56689;BME280;42565;53.342;-1.534;2023-05-07T11:19:08;99087.59;;;21.83;43.23
56689;BME280;42565;53.342;-1.534;2023-05-07T11:21:37;99090.69;;;21.74;42.80
56689;BME280;42565;53.342;-1.534;2023-05-07T11:24:05;99093.00;;;21.67;44.05
56689;BME280;42565;53.342;-1.534;2023-05-07T11:26:43;99093.66;;;20.81;45.15
56689;BME280;42565;53.342;-1.534;2023-05-07T11:29:12;99097.81;;;21.97;44.26
56689;BME280;42565;53.342;-1.534;2023-05-07T11:31:39;99095.31;;;22.19;45.24
56689;BME280;42565;53.342;-1.534;2023-05-07T11:34:06;99098.45;;;23.00;43.43
56689;BME280;42565;53.342;-1.534;2023-05-07T11:36:34;99101.19;;;22.77;42.57
56689;BME280;42565;53.342;-1.534;2023-05-07T11:39:01;99108.87;;;22.39;41.59
56689;BME280;42565;53.342;-1.534;2023-05-07T11:41:36;99102.15;;;21.74;41.52
56689;BME280;42565;53.342;-1.534;2023-05-07T11:44:04;99108.13;;;22.37;41.51
56689;BME280;42565;53.342;-1.534;2023-05-07T11:46:32;99102.89;;;22.06;40.85
56689;BME280;42565;53.342;-1.534;2023-05-07T11:49:00;99096.96;;;22.02;40.65
56689;BME280;42565;53.342;-1.534;2023-05-07T11:51:28;99089.95;;;21.78;41.87
56689;BME280;42565;53.342;-1.534;2023-05-07T11:53:55;99093.32;;;22.33;41.76
56689;BME280;42565;53.342;-1.534;2023-05-07T11:56:23;99098.87;;;22.85;40.93
56689;BME280;42565;53.342;-1.534;2023-05-07T11:58:50;99097.23;;;23.10;40.65
56689;BME280;42565;53.342;-1.534;2023-05-07T12:01:17;99097.31;;;22.64;40.54
56689;BME280;42565;53.342;-1.534;2023-05-07T12:03:45;99098.04;;;22.96;39.53
56689;BME280;42565;53.342;-1.534;2023-05-07T12:06:14;99099.62;;;22.60;39.22
56689;BME280;42565;53.342;-1.534;2023-05-07T12:08:44;99101.04;;;22.71;39.26
56689;BME280;42565;53.342;-1.534;2023-05-07T12:11:14;99107.86;;;23.51;39.42
56689;BME280;42565;53.342;-1.534;2023-05-07T12:13:42;99104.26;;;23.02;38.85
56689;BME280;42565;53.342;-1.534;2023-05-07T12:16:09;99103.40;;;22.75;38.77
56689;BME280;42565;53.342;-1.534;2023-05-07T12:18:37;99106.66;;;23.39;38.89
56689;BME280;42565;53.342;-1.534;2023-05-07T12:21:05;99109.58;;;23.41;37.48
56689;BME280;42565;53.342;-1.534;2023-05-07T12:23:34;99112.97;;;22.80;39.89
56689;BME280;42565;53.342;-1.534;2023-05-07T12:26:03;99117.20;;;23.69;39.29
56689;BME280;42565;53.342;-1.534;2023-05-07T12:28:30;99120.34;;;23.34;38.12
56689;BME280;42565;53.342;-1.534;2023-05-07T12:30:58;99121.23;;;23.17;37.46
56689;BME280;42565;53.342;-1.534;2023-05-07T12:33:26;99115.76;;;23.86;37.34
56689;BME280;42565;53.342;-1.534;2023-05-07T12:35:55;99114.52;;;23.67;36.58
56689;BME280;42565;53.342;-1.534;2023-05-07T12:38:22;99114.13;;;23.42;36.18
56689;BME280;42565;53.342;-1.534;2023-05-07T12:40:50;99116.06;;;23.17;37.32
56689;BME280;42565;53.342;-1.534;2023-05-07T12:43:21;99119.66;;;23.06;37.81
56689;BME280;42565;53.342;-1.534;2023-05-07T12:45:50;99116.96;;;22.65;39.22
56689;BME280;42565;53.342;-1.534;2023-05-07T12:48:19;99116.52;;;22.94;41.17
56689;BME280;42565;53.342;-1.534;2023-05-07T12:50:49;99115.98;;;23.59;37.68
56689;BME280;42565;53.342;-1.534;2023-05-07T12:53:17;99118.18;;;23.00;37.12
56689;BME280;42565;53.342;-1.534;2023-05-07T12:55:48;99113.88;;;22.66;38.82